createdAt,value
2023-05-03T00:00:09.307Z,13.24
2023-05-03T00:02:36.615Z,13.34
2023-05-03T00:05:04.741Z,13.26
2023-05-03T00:07:32.519Z,13.12
2023-05-03T00:09:59.162Z,13.16
2023-05-03T00:12:25.782Z,13.18
2023-05-03T00:14:52.519Z,12.77
2023-05-03T00:17:19.150Z,12.81
2023-05-03T00:19:45.734Z,12.63
2023-05-03T00:22:12.350Z,12.60
2023-05-03T00:24:38.988Z,12.71
2023-05-03T00:27:05.661Z,12.61
2023-05-03T00:29:35.299Z,12.79
2023-05-03T00:32:02.135Z,12.85
2023-05-03T00:34:28.924Z,13.00
2023-05-03T00:36:55.539Z,13.14
2023-05-03T00:39:22.174Z,13.23
2023-05-03T00:41:48.918Z,13.47
2023-05-03T00:44:15.656Z,13.53
2023-05-03T00:46:42.760Z,13.29
2023-05-03T00:49:09.546Z,13.35
2023-05-03T00:51:37.027Z,13.52
2023-05-03T00:54:04.434Z,13.76
2023-05-03T00:56:38.000Z,14.13
2023-05-03T00:59:15.090Z,13.78
2023-05-03T01:01:41.775Z,13.47
2023-05-03T01:04:08.509Z,13.79
2023-05-03T01:06:41.160Z,12.86
2023-05-03T01:09:39.574Z,13.03
2023-05-03T01:12:41.038Z,13.23
2023-05-03T01:15:13.633Z,13.38
2023-05-03T01:17:48.157Z,13.32
2023-05-03T01:20:17.502Z,13.51
2023-05-03T01:22:53.418Z,13.27
2023-05-03T01:25:20.103Z,13.33
2023-05-03T01:27:46.729Z,12.51
2023-05-03T01:30:13.831Z,12.67
2023-05-03T01:33:06.317Z,12.69
2023-05-03T01:35:37.019Z,12.76
2023-05-03T01:38:05.145Z,12.69
2023-05-03T01:40:39.150Z,12.96
2023-05-03T01:43:08.252Z,12.72
2023-05-03T01:45:35.290Z,12.96
2023-05-03T01:48:02.061Z,12.94
2023-05-03T01:50:28.867Z,13.15
2023-05-03T01:52:55.532Z,13.49
2023-05-03T01:55:22.161Z,13.42
2023-05-03T01:57:48.797Z,13.45
2023-05-03T02:00:15.529Z,13.52
2023-05-03T02:02:42.213Z,13.70
2023-05-03T02:05:10.038Z,13.65
2023-05-03T02:07:36.743Z,13.84
2023-05-03T02:10:04.170Z,14.03
2023-05-03T02:12:30.953Z,13.83
2023-05-03T02:14:57.694Z,13.94
2023-05-03T02:17:24.318Z,14.05
2023-05-03T02:19:50.928Z,13.86
2023-05-03T02:22:17.669Z,13.44
2023-05-03T02:24:44.323Z,13.41
2023-05-03T02:27:10.988Z,13.62
2023-05-03T02:29:37.632Z,13.34
2023-05-03T02:32:04.413Z,13.63
2023-05-03T02:34:31.941Z,13.79
2023-05-03T02:36:58.738Z,13.87
2023-05-03T02:39:25.509Z,13.58
2023-05-03T02:41:52.171Z,12.78
2023-05-03T02:44:18.805Z,12.91
2023-05-03T02:46:45.535Z,12.95
2023-05-03T02:49:12.232Z,12.88
2023-05-03T02:51:38.924Z,12.93
2023-05-03T02:54:05.664Z,12.67
2023-05-03T02:56:33.659Z,12.57
2023-05-03T02:59:00.331Z,13.12
2023-05-03T03:01:27.004Z,13.09
2023-05-03T03:03:53.812Z,12.92
2023-05-03T03:06:20.795Z,12.85
2023-05-03T03:08:47.619Z,12.76
2023-05-03T03:11:14.360Z,12.89
2023-05-03T03:13:41.020Z,13.00
2023-05-03T03:16:08.761Z,13.10
2023-05-03T03:18:36.010Z,13.36
2023-05-03T03:21:03.398Z,13.48
2023-05-03T03:23:30.302Z,13.31
2023-05-03T03:25:57.029Z,13.49
2023-05-03T03:28:23.688Z,13.43
2023-05-03T03:30:50.290Z,13.36
2023-05-03T03:33:17.124Z,13.20
2023-05-03T03:35:43.922Z,13.29
2023-05-03T03:38:10.586Z,13.34
2023-05-03T03:40:37.322Z,13.34
2023-05-03T03:43:04.043Z,13.35
2023-05-03T03:45:30.803Z,13.26
2023-05-03T03:47:57.778Z,13.16
2023-05-03T03:50:26.851Z,13.27
2023-05-03T03:52:53.479Z,13.29
2023-05-03T03:55:20.218Z,13.28
2023-05-03T03:57:46.881Z,13.26
2023-05-03T04:00:13.900Z,13.58
2023-05-03T04:02:40.650Z,13.53
2023-05-03T04:05:07.558Z,13.52
2023-05-03T04:07:34.154Z,13.43
2023-05-03T04:10:00.967Z,13.49
2023-05-03T04:12:28.064Z,13.41
2023-05-03T04:14:54.701Z,13.45
2023-05-03T04:17:21.322Z,13.14
2023-05-03T04:19:48.297Z,13.09
2023-05-03T04:22:14.880Z,13.12
2023-05-03T04:24:41.514Z,13.07
2023-05-03T04:27:08.143Z,13.18
2023-05-03T04:29:34.832Z,13.07
2023-05-03T04:32:01.650Z,13.11
2023-05-03T04:34:28.404Z,13.17
2023-05-03T04:36:55.019Z,13.17
2023-05-03T04:39:21.883Z,12.82
2023-05-03T04:41:48.498Z,12.88
2023-05-03T04:44:15.233Z,12.89
2023-05-03T04:46:42.006Z,13.00
2023-05-03T04:49:08.870Z,13.50
2023-05-03T04:51:35.522Z,13.53
2023-05-03T04:54:02.217Z,13.12
2023-05-03T04:56:28.798Z,13.12
2023-05-03T04:58:55.552Z,12.60
2023-05-03T05:01:22.229Z,12.35
2023-05-03T05:03:49.009Z,12.61
2023-05-03T05:06:15.862Z,12.58
2023-05-03T05:08:42.552Z,12.72
2023-05-03T05:11:09.240Z,12.94
2023-05-03T05:13:35.885Z,12.70
2023-05-03T05:16:02.566Z,12.98
2023-05-03T05:18:29.410Z,12.75
2023-05-03T05:20:56.122Z,12.88
2023-05-03T05:23:22.707Z,12.90
2023-05-03T05:25:49.612Z,12.96
2023-05-03T05:28:16.316Z,12.86
2023-05-03T05:30:42.933Z,12.94
2023-05-03T05:33:09.682Z,12.88
2023-05-03T05:35:36.528Z,13.03
2023-05-03T05:38:03.273Z,13.11
2023-05-03T05:40:29.984Z,13.18
2023-05-03T05:42:56.644Z,13.43
2023-05-03T05:45:23.336Z,13.44
2023-05-03T05:47:50.017Z,13.43
2023-05-03T05:50:18.816Z,13.43
2023-05-03T05:52:46.058Z,13.41
2023-05-03T05:55:12.654Z,13.60
2023-05-03T05:57:39.409Z,13.59
2023-05-03T06:00:06.864Z,13.42
2023-05-03T06:02:33.628Z,13.73
2023-05-03T06:05:00.346Z,14.14
2023-05-03T06:07:27.095Z,14.26
2023-05-03T06:09:53.846Z,13.82
2023-05-03T06:12:20.466Z,13.96
2023-05-03T06:15:01.396Z,14.15
2023-05-03T06:17:29.261Z,14.62
2023-05-03T06:19:55.945Z,15.22
2023-05-03T06:22:22.583Z,15.58
2023-05-03T06:24:49.228Z,15.62
2023-05-03T06:27:15.915Z,15.22
2023-05-03T06:29:42.779Z,15.33
2023-05-03T06:32:09.362Z,15.33
2023-05-03T06:34:35.967Z,14.21
2023-05-03T06:37:03.429Z,15.11
2023-05-03T06:39:30.149Z,15.45
2023-05-03T06:41:56.753Z,15.40
2023-05-03T06:44:23.344Z,15.27
2023-05-03T06:46:51.732Z,14.79
2023-05-03T06:49:18.538Z,14.59
2023-05-03T06:51:45.163Z,14.69
2023-05-03T06:54:11.827Z,15.06
2023-05-03T06:56:38.572Z,14.97
2023-05-03T06:59:05.446Z,14.98
2023-05-03T07:01:32.281Z,14.90
2023-05-03T07:03:59.059Z,15.26
2023-05-03T07:06:25.977Z,14.92
2023-05-03T07:08:53.953Z,14.88
2023-05-03T07:11:22.005Z,14.58
2023-05-03T07:13:48.753Z,14.82
2023-05-03T07:16:15.481Z,14.81
2023-05-03T07:18:42.154Z,15.10
2023-05-03T07:21:09.452Z,15.01
2023-05-03T07:23:36.303Z,15.11
2023-05-03T07:26:03.010Z,15.84
2023-05-03T07:28:29.720Z,15.73
2023-05-03T07:30:56.591Z,15.75
2023-05-03T07:33:23.385Z,16.10
2023-05-03T07:35:50.094Z,15.85
2023-05-03T07:38:17.148Z,15.99
2023-05-03T07:40:44.441Z,15.63
2023-05-03T07:43:11.048Z,15.73
2023-05-03T07:45:38.246Z,15.45
2023-05-03T07:48:05.659Z,15.22
2023-05-03T07:50:32.360Z,15.49
2023-05-03T07:52:59.112Z,15.81
2023-05-03T07:55:25.862Z,15.80
2023-05-03T07:57:52.444Z,15.78
2023-05-03T08:00:19.213Z,16.15
2023-05-03T08:02:45.977Z,15.98
2023-05-03T08:05:12.836Z,16.10
2023-05-03T08:07:39.554Z,16.40
2023-05-03T08:10:07.015Z,17.02
2023-05-03T08:12:33.640Z,17.13
2023-05-03T08:15:00.213Z,17.16
2023-05-03T08:17:26.954Z,17.42
2023-05-03T08:19:55.592Z,17.40
2023-05-03T08:22:22.276Z,17.63
2023-05-03T08:24:48.895Z,17.50
2023-05-03T08:27:15.513Z,17.18
2023-05-03T08:29:44.266Z,17.35
2023-05-03T08:32:10.896Z,17.80
2023-05-03T08:34:37.522Z,17.73
2023-05-03T08:37:04.104Z,17.77
2023-05-03T08:39:30.854Z,17.40
2023-05-03T08:41:57.618Z,17.84
2023-05-03T08:44:29.464Z,18.32
2023-05-03T08:46:56.309Z,18.11
2023-05-03T08:49:24.320Z,17.89
2023-05-03T08:51:51.845Z,17.81
2023-05-03T08:54:18.468Z,18.26
2023-05-03T08:56:45.191Z,18.36
2023-05-03T08:59:11.899Z,18.48
2023-05-03T09:01:40.516Z,18.72
2023-05-03T09:04:08.371Z,18.83
2023-05-03T09:06:35.955Z,18.52
2023-05-03T09:09:05.234Z,18.45
2023-05-03T09:11:33.322Z,18.84
2023-05-03T09:14:18.957Z,19.08
2023-05-03T09:16:46.413Z,19.04
2023-05-03T09:19:14.935Z,19.09
2023-05-03T09:21:43.818Z,19.16
2023-05-03T09:24:14.474Z,19.14
2023-05-03T09:26:41.567Z,18.51
2023-05-03T09:29:09.610Z,18.89
2023-05-03T09:31:37.316Z,19.25
2023-05-03T09:34:22.016Z,18.60
2023-05-03T09:36:48.877Z,18.57
2023-05-03T09:39:19.264Z,18.15
2023-05-03T09:41:46.512Z,17.93
2023-05-03T09:44:13.383Z,18.38
2023-05-03T09:46:40.082Z,18.07
2023-05-03T09:49:07.066Z,18.80
2023-05-03T09:51:33.806Z,19.24
2023-05-03T09:54:00.603Z,19.14
2023-05-03T09:56:27.267Z,19.29
2023-05-03T09:58:54.569Z,19.21
2023-05-03T10:01:24.280Z,19.19
2023-05-03T10:03:52.312Z,18.97
2023-05-03T10:08:58.535Z,19.48
2023-05-03T10:11:27.184Z,19.32
2023-05-03T10:13:55.214Z,19.31
2023-05-03T10:16:28.108Z,19.28
2023-05-03T10:19:04.524Z,19.48
2023-05-03T10:22:03.380Z,19.51
2023-05-03T10:24:30.015Z,19.56
2023-05-03T10:26:56.791Z,19.08
2023-05-03T10:29:35.655Z,18.63
2023-05-03T10:32:04.967Z,18.71
2023-05-03T10:34:33.584Z,18.36
2023-05-03T10:37:11.097Z,18.29
2023-05-03T10:39:37.778Z,18.48
2023-05-03T10:42:06.149Z,18.42
2023-05-03T10:44:40.311Z,17.71
2023-05-03T10:47:17.285Z,17.81
2023-05-03T10:49:44.811Z,18.00
2023-05-03T10:52:36.230Z,17.81
2023-05-03T10:55:03.566Z,17.81
2023-05-03T10:57:32.378Z,17.79
2023-05-03T10:59:59.171Z,18.05
2023-05-03T11:02:32.735Z,17.83
2023-05-03T11:05:05.264Z,17.88
2023-05-03T11:07:32.184Z,17.86
2023-05-03T11:09:58.866Z,17.91
2023-05-03T11:12:25.641Z,17.88
2023-05-03T11:14:52.592Z,17.69
2023-05-03T11:17:19.255Z,17.89
2023-05-03T11:19:46.767Z,17.94
2023-05-03T11:22:13.534Z,18.16
2023-05-03T11:24:40.139Z,18.03
2023-05-03T11:27:08.019Z,17.96
2023-05-03T11:29:35.241Z,17.96
2023-05-03T11:32:01.933Z,17.98
2023-05-03T11:34:28.730Z,17.87
2023-05-03T11:36:55.366Z,17.83
2023-05-03T11:39:21.966Z,17.96
2023-05-03T11:42:08.834Z,17.83
2023-05-03T11:44:35.694Z,18.08
2023-05-03T11:47:02.738Z,18.18
2023-05-03T11:49:29.904Z,18.12
2023-05-03T11:51:56.751Z,18.18
2023-05-03T11:54:26.719Z,18.44
2023-05-03T11:56:58.450Z,17.98
2023-05-03T11:59:40.467Z,17.97
2023-05-03T12:02:09.709Z,18.16
2023-05-03T12:04:38.023Z,17.91
2023-05-03T12:07:05.352Z,17.73
2023-05-03T12:09:32.518Z,17.80
2023-05-03T12:12:02.281Z,17.83
2023-05-03T12:14:29.923Z,18.14
2023-05-03T12:16:56.892Z,18.39
2023-05-03T12:19:33.317Z,18.20
2023-05-03T12:24:33.070Z,18.46
2023-05-03T12:27:02.253Z,18.26
2023-05-03T12:29:29.697Z,18.09
2023-05-03T12:31:56.388Z,17.74
2023-05-03T12:34:32.963Z,17.72
2023-05-03T12:37:04.468Z,17.83
2023-05-03T12:39:32.893Z,17.70
2023-05-03T12:44:29.722Z,16.87
2023-05-03T12:46:59.016Z,16.87
2023-05-03T12:49:27.823Z,16.75
2023-05-03T12:52:11.060Z,16.91
2023-05-03T12:54:42.350Z,16.43
2023-05-03T12:57:14.640Z,16.26
2023-05-03T12:59:43.480Z,16.44
2023-05-03T13:07:13.273Z,17.14
2023-05-03T13:12:27.959Z,16.47
2023-05-03T13:14:54.902Z,16.55
2023-05-03T13:17:22.654Z,16.47
2023-05-03T13:19:50.743Z,16.13
2023-05-03T13:22:18.015Z,16.14
2023-05-03T13:24:46.140Z,16.25
2023-05-03T13:27:14.158Z,16.04
2023-05-03T13:29:41.428Z,15.95
2023-05-03T13:32:08.858Z,15.87
2023-05-03T13:34:36.098Z,15.81
2023-05-03T13:37:02.884Z,15.80
2023-05-03T13:39:29.624Z,15.41
2023-05-03T13:41:56.331Z,15.45
2023-05-03T13:44:22.970Z,15.77
2023-05-03T13:46:49.557Z,15.50
2023-05-03T13:49:16.404Z,15.45
2023-05-03T13:51:43.196Z,15.41
2023-05-03T13:54:09.836Z,15.40
2023-05-03T13:56:36.493Z,15.55
2023-05-03T13:59:03.126Z,15.47
2023-05-03T14:01:30.332Z,15.44
2023-05-03T14:03:57.197Z,15.87
2023-05-03T14:06:23.896Z,15.82
2023-05-03T14:08:50.657Z,15.78
2023-05-03T14:11:19.010Z,15.89
2023-05-03T14:13:56.501Z,15.70
2023-05-03T14:16:36.337Z,15.90
2023-05-03T14:19:07.750Z,15.93
2023-05-03T14:21:34.679Z,15.77
2023-05-03T14:24:01.371Z,15.85
2023-05-03T14:26:28.049Z,15.89
2023-05-03T14:28:54.687Z,16.22
2023-05-03T14:31:21.529Z,16.21
2023-05-03T14:33:48.176Z,16.06
2023-05-03T14:36:14.929Z,16.10
2023-05-03T14:38:41.535Z,16.16
2023-05-03T14:41:08.140Z,16.01
2023-05-03T14:43:34.764Z,15.82
2023-05-03T14:46:01.456Z,15.83
2023-05-03T14:48:28.057Z,15.99
2023-05-03T14:50:54.749Z,15.93
2023-05-03T14:53:21.449Z,15.91
2023-05-03T14:55:48.195Z,15.87
2023-05-03T14:58:15.676Z,15.73
2023-05-03T15:00:42.954Z,15.91
2023-05-03T15:03:09.803Z,15.90
2023-05-03T15:05:49.292Z,15.95
2023-05-03T15:08:19.989Z,16.08
2023-05-03T15:10:47.167Z,16.00
2023-05-03T15:13:15.741Z,16.12
2023-05-03T15:15:42.716Z,15.99
2023-05-03T15:18:09.688Z,15.96
2023-05-03T15:20:36.484Z,16.03
2023-05-03T15:23:04.362Z,16.16
2023-05-03T15:25:31.407Z,16.18
2023-05-03T15:27:58.807Z,15.94
2023-05-03T15:30:26.698Z,15.81
2023-05-03T15:32:53.338Z,15.98
2023-05-03T15:35:20.439Z,16.10
2023-05-03T15:37:48.462Z,15.90
2023-05-03T15:40:15.224Z,15.94
2023-05-03T15:42:41.850Z,16.17
2023-05-03T15:45:08.862Z,16.19
2023-05-03T15:47:35.452Z,16.18
2023-05-03T15:50:02.644Z,16.22
2023-05-03T15:52:29.565Z,16.11
2023-05-03T15:54:56.188Z,16.14
2023-05-03T15:57:23.201Z,16.29
2023-05-03T15:59:49.925Z,16.20
2023-05-03T16:02:16.653Z,16.15
2023-05-03T16:04:43.496Z,16.21
2023-05-03T16:07:10.144Z,16.24
2023-05-03T16:09:36.849Z,16.06
2023-05-03T16:12:03.710Z,16.07
2023-05-03T16:14:30.374Z,15.93
2023-05-03T16:16:57.059Z,15.66
2023-05-03T16:19:23.743Z,15.74
2023-05-03T16:21:50.390Z,15.80
2023-05-03T16:24:17.016Z,15.90
2023-05-03T16:26:43.644Z,15.63
2023-05-03T16:29:10.254Z,15.56
2023-05-03T16:31:37.106Z,15.79
2023-05-03T16:34:03.833Z,15.64
2023-05-03T16:36:30.458Z,15.73
2023-05-03T16:39:00.055Z,15.57
2023-05-03T16:41:26.672Z,15.71
2023-05-03T16:43:53.338Z,15.49
2023-05-03T16:46:21.537Z,15.74
2023-05-03T16:48:48.243Z,15.70
2023-05-03T16:51:14.842Z,15.64
2023-05-03T16:53:41.632Z,15.49
2023-05-03T16:56:08.272Z,15.50
2023-05-03T16:58:34.901Z,15.79
2023-05-03T17:01:01.596Z,15.72
2023-05-03T17:03:28.452Z,15.54
2023-05-03T17:05:55.209Z,15.46
2023-05-03T17:08:21.808Z,15.56
2023-05-03T17:10:48.423Z,15.81
2023-05-03T17:13:15.154Z,15.51
2023-05-03T17:15:42.095Z,15.40
2023-05-03T17:18:08.755Z,15.33
2023-05-03T17:20:35.655Z,15.26
2023-05-03T17:23:02.254Z,15.34
2023-05-03T17:25:28.863Z,15.31
2023-05-03T17:27:55.702Z,15.50
2023-05-03T17:30:23.133Z,15.32
2023-05-03T17:32:49.925Z,15.34
2023-05-03T17:35:16.802Z,15.18
2023-05-03T17:37:44.772Z,15.02
2023-05-03T17:40:11.979Z,14.95
2023-05-03T17:42:38.560Z,14.98
2023-05-03T17:45:05.671Z,14.92
2023-05-03T17:47:32.416Z,15.02
2023-05-03T17:49:59.268Z,14.92
2023-05-03T17:52:25.857Z,14.80
2023-05-03T17:54:52.532Z,14.71
2023-05-03T17:57:19.180Z,14.81
2023-05-03T17:59:46.497Z,14.73
2023-05-03T18:02:13.142Z,14.81
2023-05-03T18:04:39.721Z,14.73
2023-05-03T18:07:06.402Z,14.86
2023-05-03T18:09:33.038Z,14.79
2023-05-03T18:11:59.745Z,14.82
2023-05-03T18:14:26.513Z,14.85
2023-05-03T18:16:54.801Z,14.84
2023-05-03T18:19:21.648Z,14.83
2023-05-03T18:21:48.261Z,14.84
2023-05-03T18:24:14.895Z,14.86
2023-05-03T18:26:41.579Z,14.50
2023-05-03T18:29:08.216Z,14.32
2023-05-03T18:31:34.992Z,14.16
2023-05-03T18:34:01.650Z,14.27
2023-05-03T18:36:28.232Z,14.20
2023-05-03T18:38:54.870Z,14.27
2023-05-03T18:41:21.651Z,14.18
2023-05-03T18:43:48.257Z,14.31
2023-05-03T18:46:19.295Z,14.27
2023-05-03T18:48:47.034Z,14.23
2023-05-03T18:51:13.722Z,14.24
2023-05-03T18:53:40.386Z,14.17
2023-05-03T18:56:07.080Z,14.27
2023-05-03T18:58:33.775Z,14.15
2023-05-03T19:01:00.673Z,14.38
2023-05-03T19:03:28.364Z,14.18
2023-05-03T19:06:05.283Z,14.07
2023-05-03T19:08:31.934Z,14.01
2023-05-03T19:11:09.520Z,13.90
2023-05-03T19:13:36.528Z,14.00
2023-05-03T19:16:06.542Z,13.93
2023-05-03T19:18:33.473Z,14.06
2023-05-03T19:21:00.204Z,14.10
2023-05-03T19:23:27.202Z,13.78
2023-05-03T19:25:53.868Z,13.79
2023-05-03T19:28:20.494Z,13.71
2023-05-03T19:30:49.433Z,13.62
2023-05-03T19:33:18.331Z,13.58
2023-05-03T19:35:45.001Z,13.45
2023-05-03T19:38:11.666Z,13.40
2023-05-03T19:40:38.458Z,13.36
2023-05-03T19:43:08.085Z,13.14
2023-05-03T19:45:34.711Z,13.27
2023-05-03T19:48:01.402Z,13.36
2023-05-03T19:50:28.068Z,13.21
2023-05-03T19:52:54.752Z,13.00
2023-05-03T19:55:21.404Z,13.00
2023-05-03T19:57:48.280Z,13.22
2023-05-03T20:00:16.114Z,13.66
2023-05-03T20:02:42.968Z,14.05
2023-05-03T20:05:09.735Z,14.33
2023-05-03T20:07:36.353Z,14.38
2023-05-03T20:10:03.504Z,14.34
2023-05-03T20:12:30.356Z,14.15
2023-05-03T20:14:56.991Z,14.37
2023-05-03T20:17:23.620Z,13.93
2023-05-03T20:19:50.327Z,13.60
2023-05-03T20:22:17.037Z,13.82
2023-05-03T20:24:43.707Z,13.99
2023-05-03T20:27:10.404Z,14.06
2023-05-03T20:29:37.244Z,14.07
2023-05-03T20:32:03.944Z,14.07
2023-05-03T20:34:30.592Z,14.22
2023-05-03T20:36:57.217Z,14.24
2023-05-03T20:39:23.864Z,14.31
2023-05-03T20:41:50.476Z,14.25
2023-05-03T20:44:17.093Z,14.26
2023-05-03T20:46:43.775Z,13.99
2023-05-03T20:49:10.598Z,13.28
2023-05-03T20:51:37.451Z,13.43
2023-05-03T20:54:04.063Z,13.70
2023-05-03T20:56:32.378Z,13.91
2023-05-03T20:58:59.087Z,14.01
2023-05-03T21:01:25.743Z,14.06
2023-05-03T21:03:52.400Z,14.21
2023-05-03T21:06:19.082Z,14.29
2023-05-03T21:08:45.661Z,14.20
2023-05-03T21:11:12.270Z,14.15
2023-05-03T21:13:38.880Z,14.16
2023-05-03T21:16:05.585Z,14.14
2023-05-03T21:18:32.233Z,14.09
2023-05-03T21:20:58.834Z,14.09
2023-05-03T21:23:25.506Z,14.02
2023-05-03T21:25:54.389Z,14.03
2023-05-03T21:28:22.583Z,14.04
2023-05-03T21:30:49.199Z,14.04
2023-05-03T21:33:16.412Z,13.94
2023-05-03T21:35:43.053Z,13.94
2023-05-03T21:38:09.686Z,13.85
2023-05-03T21:40:36.480Z,13.86
2023-05-03T21:43:03.140Z,13.89
2023-05-03T21:45:29.814Z,13.91
2023-05-03T21:47:56.461Z,13.91
2023-05-03T21:50:23.205Z,13.95
2023-05-03T21:52:49.824Z,13.96
2023-05-03T21:55:16.549Z,14.25
2023-05-03T21:57:43.219Z,13.96
2023-05-03T22:00:10.589Z,13.77
2023-05-03T22:02:37.294Z,13.86
2023-05-03T22:05:04.158Z,13.83
2023-05-03T22:07:30.795Z,13.76
2023-05-03T22:09:57.395Z,13.78
2023-05-03T22:12:24.996Z,13.81
2023-05-03T22:14:52.659Z,13.86
2023-05-03T22:17:19.291Z,13.81
2023-05-03T22:19:45.993Z,13.68
2023-05-03T22:22:12.615Z,13.67
2023-05-03T22:24:39.287Z,13.81
2023-05-03T22:27:05.913Z,13.91
2023-05-03T22:29:32.573Z,13.74
2023-05-03T22:31:59.450Z,13.68
2023-05-03T22:34:26.123Z,13.67
2023-05-03T22:36:52.875Z,13.67
2023-05-03T22:39:19.502Z,13.61
2023-05-03T22:41:46.108Z,13.53
2023-05-03T22:44:12.807Z,13.60
2023-05-03T22:46:40.015Z,13.66
2023-05-03T22:49:06.730Z,13.85
2023-05-03T22:51:33.387Z,13.72
2023-05-03T22:54:00.004Z,13.77
2023-05-03T22:56:26.750Z,13.84
2023-05-03T22:58:53.524Z,13.62
2023-05-03T23:01:20.275Z,13.62
2023-05-03T23:03:47.021Z,13.60
2023-05-03T23:06:16.746Z,13.69
2023-05-03T23:08:43.488Z,13.50
2023-05-03T23:11:10.712Z,13.45
2023-05-03T23:13:38.065Z,13.44
2023-05-03T23:16:05.085Z,13.36
2023-05-03T23:18:31.719Z,13.34
2023-05-03T23:20:58.352Z,13.35
2023-05-03T23:23:25.123Z,13.35
2023-05-03T23:25:52.115Z,13.44
2023-05-03T23:28:19.174Z,13.34
2023-05-03T23:30:46.012Z,13.35
2023-05-03T23:33:13.341Z,13.30
2023-05-03T23:35:41.072Z,13.35
2023-05-03T23:38:07.848Z,13.57
2023-05-03T23:40:34.530Z,13.29
2023-05-03T23:43:01.179Z,12.99
2023-05-03T23:45:28.152Z,12.79
2023-05-03T23:47:55.076Z,12.64
2023-05-03T23:50:21.823Z,12.54
2023-05-03T23:52:48.432Z,12.30
2023-05-03T23:55:15.044Z,12.33
2023-05-03T23:57:41.767Z,12.49
